sensor_id;sensor_type;location;lat;lon;timestamp;P1;durP1;ratioP1;P2;durP2;ratioP2
1563;SDS011;775;51.958;7.976;2023-04-25T00:02:18;16.57;;;4.50;;
1563;SDS011;775;51.958;7.976;2023-04-25T00:04:45;19.90;;;4.17;;
1563;SDS011;775;51.958;7.976;2023-04-25T00:07:13;15.90;;;4.83;;
1563;SDS011;775;51.958;7.976;2023-04-25T00:09:41;18.80;;;4.50;;
1563;SDS011;775;51.958;7.976;2023-04-25T00:12:10;17.17;;;4.10;;
1563;SDS011;775;51.958;7.976;2023-04-25T00:14:37;17.03;;;3.80;;
1563;SDS011;775;51.958;7.976;2023-04-25T00:17:04;15.70;;;4.23;;
1563;SDS011;775;51.958;7.976;2023-04-25T00:19:31;15.90;;;4.10;;
1563;SDS011;775;51.958;7.976;2023-04-25T00:21:59;19.40;;;4.53;;
1563;SDS011;775;51.958;7.976;2023-04-25T00:24:26;17.17;;;3.80;;
1563;SDS011;775;51.958;7.976;2023-04-25T00:26:54;16.90;;;4.20;;
1563;SDS011;775;51.958;7.976;2023-04-25T00:29:22;15.60;;;4.50;;
1563;SDS011;775;51.958;7.976;2023-04-25T00:31:49;15.03;;;4.07;;
1563;SDS011;775;51.958;7.976;2023-04-25T00:34:16;16.17;;;4.80;;
1563;SDS011;775;51.958;7.976;2023-04-25T00:36:43;15.77;;;4.10;;
1563;SDS011;775;51.958;7.976;2023-04-25T00:39:11;16.70;;;4.70;;
1563;SDS011;775;51.958;7.976;2023-04-25T00:41:38;14.73;;;4.10;;
1563;SDS011;775;51.958;7.976;2023-04-25T00:44:05;21.73;;;3.97;;
1563;SDS011;775;51.958;7.976;2023-04-25T00:46:34;14.53;;;3.50;;
1563;SDS011;775;51.958;7.976;2023-04-25T00:49:02;17.00;;;4.50;;
1563;SDS011;775;51.958;7.976;2023-04-25T00:51:29;15.20;;;4.50;;
1563;SDS011;775;51.958;7.976;2023-04-25T00:53:57;17.63;;;4.70;;
1563;SDS011;775;51.958;7.976;2023-04-25T00:56:24;15.47;;;4.50;;
1563;SDS011;775;51.958;7.976;2023-04-25T00:58:52;17.60;;;4.40;;
1563;SDS011;775;51.958;7.976;2023-04-25T01:01:21;14.50;;;4.53;;
1563;SDS011;775;51.958;7.976;2023-04-25T01:03:49;16.67;;;5.10;;
1563;SDS011;775;51.958;7.976;2023-04-25T01:06:17;12.30;;;3.67;;
1563;SDS011;775;51.958;7.976;2023-04-25T01:08:44;14.80;;;4.10;;
1563;SDS011;775;51.958;7.976;2023-04-25T01:11:11;15.50;;;4.77;;
1563;SDS011;775;51.958;7.976;2023-04-25T01:13:38;15.13;;;5.53;;
1563;SDS011;775;51.958;7.976;2023-04-25T01:16:06;15.10;;;4.30;;
1563;SDS011;775;51.958;7.976;2023-04-25T01:18:33;14.80;;;4.70;;
1563;SDS011;775;51.958;7.976;2023-04-25T01:21:08;16.73;;;4.63;;
1563;SDS011;775;51.958;7.976;2023-04-25T01:23:35;14.53;;;3.90;;
1563;SDS011;775;51.958;7.976;2023-04-25T01:26:03;13.87;;;4.13;;
1563;SDS011;775;51.958;7.976;2023-04-25T01:28:30;21.53;;;5.80;;
1563;SDS011;775;51.958;7.976;2023-04-25T01:30:57;18.47;;;4.53;;
1563;SDS011;775;51.958;7.976;2023-04-25T01:33:25;15.13;;;4.20;;
1563;SDS011;775;51.958;7.976;2023-04-25T01:35:52;14.57;;;4.13;;
1563;SDS011;775;51.958;7.976;2023-04-25T01:38:21;12.33;;;4.07;;
1563;SDS011;775;51.958;7.976;2023-04-25T01:40:48;16.73;;;5.10;;
1563;SDS011;775;51.958;7.976;2023-04-25T01:43:16;15.93;;;4.63;;
1563;SDS011;775;51.958;7.976;2023-04-25T01:45:43;14.30;;;5.00;;
1563;SDS011;775;51.958;7.976;2023-04-25T01:48:10;16.40;;;4.40;;
1563;SDS011;775;51.958;7.976;2023-04-25T01:50:38;17.07;;;4.70;;
1563;SDS011;775;51.958;7.976;2023-04-25T01:53:06;13.63;;;4.27;;
1563;SDS011;775;51.958;7.976;2023-04-25T01:55:34;17.10;;;4.27;;
1563;SDS011;775;51.958;7.976;2023-04-25T01:58:02;14.93;;;3.77;;
1563;SDS011;775;51.958;7.976;2023-04-25T02:00:34;12.63;;;4.20;;
1563;SDS011;775;51.958;7.976;2023-04-25T02:03:03;14.60;;;3.47;;
1563;SDS011;775;51.958;7.976;2023-04-25T02:05:33;14.10;;;3.67;;
1563;SDS011;775;51.958;7.976;2023-04-25T02:08:00;12.57;;;3.10;;
1563;SDS011;775;51.958;7.976;2023-04-25T02:10:28;13.83;;;2.90;;
1563;SDS011;775;51.958;7.976;2023-04-25T02:12:56;13.33;;;3.07;;
1563;SDS011;775;51.958;7.976;2023-04-25T02:15:23;13.17;;;2.73;;
1563;SDS011;775;51.958;7.976;2023-04-25T02:17:50;14.43;;;2.97;;
1563;SDS011;775;51.958;7.976;2023-04-25T02:20:18;13.90;;;3.00;;
1563;SDS011;775;51.958;7.976;2023-04-25T02:22:46;18.40;;;3.07;;
1563;SDS011;775;51.958;7.976;2023-04-25T02:25:13;11.93;;;3.23;;
1563;SDS011;775;51.958;7.976;2023-04-25T02:27:41;14.73;;;3.27;;
1563;SDS011;775;51.958;7.976;2023-04-25T02:30:10;16.00;;;3.17;;
1563;SDS011;775;51.958;7.976;2023-04-25T02:32:37;16.03;;;3.20;;
1563;SDS011;775;51.958;7.976;2023-04-25T02:35:05;17.50;;;3.40;;
1563;SDS011;775;51.958;7.976;2023-04-25T02:37:32;14.13;;;2.73;;
1563;SDS011;775;51.958;7.976;2023-04-25T02:40:00;15.97;;;2.97;;
1563;SDS011;775;51.958;7.976;2023-04-25T02:42:27;16.20;;;3.70;;
1563;SDS011;775;51.958;7.976;2023-04-25T02:44:55;13.70;;;2.93;;
1563;SDS011;775;51.958;7.976;2023-04-25T02:47:23;14.77;;;3.10;;
1563;SDS011;775;51.958;7.976;2023-04-25T02:49:50;14.20;;;3.20;;
1563;SDS011;775;51.958;7.976;2023-04-25T02:52:17;17.13;;;3.00;;
1563;SDS011;775;51.958;7.976;2023-04-25T02:54:44;13.20;;;2.70;;
1563;SDS011;775;51.958;7.976;2023-04-25T02:57:11;14.63;;;3.20;;
1563;SDS011;775;51.958;7.976;2023-04-25T02:59:38;16.40;;;3.70;;
1563;SDS011;775;51.958;7.976;2023-04-25T03:02:06;16.23;;;3.30;;
1563;SDS011;775;51.958;7.976;2023-04-25T03:04:34;15.23;;;3.37;;
1563;SDS011;775;51.958;7.976;2023-04-25T03:07:01;16.87;;;2.83;;
1563;SDS011;775;51.958;7.976;2023-04-25T03:09:28;15.40;;;3.70;;
1563;SDS011;775;51.958;7.976;2023-04-25T03:11:55;20.80;;;3.47;;
1563;SDS011;775;51.958;7.976;2023-04-25T03:14:23;13.10;;;3.17;;
1563;SDS011;775;51.958;7.976;2023-04-25T03:16:50;13.90;;;3.10;;
1563;SDS011;775;51.958;7.976;2023-04-25T03:19:17;14.73;;;3.30;;
1563;SDS011;775;51.958;7.976;2023-04-25T03:21:46;18.57;;;3.03;;
1563;SDS011;775;51.958;7.976;2023-04-25T03:24:13;17.87;;;3.10;;
1563;SDS011;775;51.958;7.976;2023-04-25T03:26:41;19.40;;;3.43;;
1563;SDS011;775;51.958;7.976;2023-04-25T03:29:08;15.73;;;2.80;;
1563;SDS011;775;51.958;7.976;2023-04-25T03:31:35;19.60;;;3.13;;
1563;SDS011;775;51.958;7.976;2023-04-25T03:34:02;14.70;;;3.33;;
1563;SDS011;775;51.958;7.976;2023-04-25T03:36:29;17.57;;;4.00;;
1563;SDS011;775;51.958;7.976;2023-04-25T03:38:59;21.70;;;3.60;;
1563;SDS011;775;51.958;7.976;2023-04-25T03:41:26;19.40;;;3.67;;
1563;SDS011;775;51.958;7.976;2023-04-25T03:43:53;23.53;;;3.10;;
1563;SDS011;775;51.958;7.976;2023-04-25T03:46:20;19.73;;;3.20;;
1563;SDS011;775;51.958;7.976;2023-04-25T03:48:47;19.37;;;3.63;;
1563;SDS011;775;51.958;7.976;2023-04-25T03:51:14;17.50;;;3.77;;
1563;SDS011;775;51.958;7.976;2023-04-25T03:53:41;17.13;;;3.20;;
1563;SDS011;775;51.958;7.976;2023-04-25T03:56:10;17.73;;;3.17;;
1563;SDS011;775;51.958;7.976;2023-04-25T03:58:37;18.90;;;3.80;;
1563;SDS011;775;51.958;7.976;2023-04-25T04:01:04;18.67;;;3.10;;
1563;SDS011;775;51.958;7.976;2023-04-25T04:03:32;20.13;;;4.13;;
1563;SDS011;775;51.958;7.976;2023-04-25T04:06:00;18.27;;;3.73;;
1563;SDS011;775;51.958;7.976;2023-04-25T04:08:28;17.07;;;3.80;;
1563;SDS011;775;51.958;7.976;2023-04-25T04:10:56;14.50;;;2.70;;
1563;SDS011;775;51.958;7.976;2023-04-25T04:13:25;21.00;;;3.73;;
1563;SDS011;775;51.958;7.976;2023-04-25T04:15:52;18.83;;;3.30;;
1563;SDS011;775;51.958;7.976;2023-04-25T04:18:19;18.00;;;3.60;;
1563;SDS011;775;51.958;7.976;2023-04-25T04:20:46;20.30;;;3.40;;
1563;SDS011;775;51.958;7.976;2023-04-25T04:23:13;20.33;;;3.57;;
1563;SDS011;775;51.958;7.976;2023-04-25T04:25:40;20.80;;;3.60;;
1563;SDS011;775;51.958;7.976;2023-04-25T04:28:08;22.13;;;4.43;;
1563;SDS011;775;51.958;7.976;2023-04-25T04:30:37;18.77;;;3.33;;
1563;SDS011;775;51.958;7.976;2023-04-25T04:33:06;20.63;;;3.20;;
1563;SDS011;775;51.958;7.976;2023-04-25T04:35:33;17.17;;;3.20;;
1563;SDS011;775;51.958;7.976;2023-04-25T04:38:00;20.93;;;3.27;;
1563;SDS011;775;51.958;7.976;2023-04-25T04:40:27;15.17;;;3.57;;
1563;SDS011;775;51.958;7.976;2023-04-25T04:42:56;15.63;;;3.17;;
1563;SDS011;775;51.958;7.976;2023-04-25T04:45:23;16.57;;;3.33;;
1563;SDS011;775;51.958;7.976;2023-04-25T04:47:53;18.50;;;3.43;;
1563;SDS011;775;51.958;7.976;2023-04-25T04:50:21;18.00;;;3.23;;
1563;SDS011;775;51.958;7.976;2023-04-25T04:52:48;23.60;;;4.00;;
1563;SDS011;775;51.958;7.976;2023-04-25T04:55:15;17.00;;;3.80;;
1563;SDS011;775;51.958;7.976;2023-04-25T04:57:42;17.50;;;3.73;;
1563;SDS011;775;51.958;7.976;2023-04-25T05:00:10;20.97;;;4.47;;
1563;SDS011;775;51.958;7.976;2023-04-25T05:02:38;23.30;;;3.63;;
1563;SDS011;775;51.958;7.976;2023-04-25T05:05:06;23.47;;;4.17;;
1563;SDS011;775;51.958;7.976;2023-04-25T05:07:34;22.93;;;3.20;;
1563;SDS011;775;51.958;7.976;2023-04-25T05:10:01;19.00;;;3.33;;
1563;SDS011;775;51.958;7.976;2023-04-25T05:12:28;18.43;;;3.03;;
1563;SDS011;775;51.958;7.976;2023-04-25T05:14:55;17.70;;;4.10;;
1563;SDS011;775;51.958;7.976;2023-04-25T05:17:22;15.20;;;4.40;;
1563;SDS011;775;51.958;7.976;2023-04-25T05:19:49;17.33;;;3.33;;
1563;SDS011;775;51.958;7.976;2023-04-25T05:22:18;25.13;;;4.40;;
1563;SDS011;775;51.958;7.976;2023-04-25T05:24:45;19.37;;;4.43;;
1563;SDS011;775;51.958;7.976;2023-04-25T05:27:13;17.23;;;3.37;;
1563;SDS011;775;51.958;7.976;2023-04-25T05:29:40;22.67;;;4.40;;
1563;SDS011;775;51.958;7.976;2023-04-25T05:32:07;18.60;;;3.10;;
1563;SDS011;775;51.958;7.976;2023-04-25T05:34:35;14.70;;;3.13;;
1563;SDS011;775;51.958;7.976;2023-04-25T05:37:02;21.13;;;3.50;;
1563;SDS011;775;51.958;7.976;2023-04-25T05:39:30;15.97;;;3.17;;
1563;SDS011;775;51.958;7.976;2023-04-25T05:41:57;17.83;;;3.37;;
1563;SDS011;775;51.958;7.976;2023-04-25T05:44:24;19.77;;;3.30;;
1563;SDS011;775;51.958;7.976;2023-04-25T05:46:51;13.00;;;3.07;;
1563;SDS011;775;51.958;7.976;2023-04-25T05:49:19;17.93;;;3.47;;
1563;SDS011;775;51.958;7.976;2023-04-25T05:51:46;17.67;;;3.43;;
1563;SDS011;775;51.958;7.976;2023-04-25T05:54:13;16.13;;;2.83;;
1563;SDS011;775;51.958;7.976;2023-04-25T05:56:41;14.53;;;2.93;;
1563;SDS011;775;51.958;7.976;2023-04-25T05:59:08;16.67;;;3.47;;
1563;SDS011;775;51.958;7.976;2023-04-25T06:01:35;25.07;;;3.60;;
1563;SDS011;775;51.958;7.976;2023-04-25T06:04:03;19.90;;;3.97;;
1563;SDS011;775;51.958;7.976;2023-04-25T06:06:30;20.27;;;3.73;;
1563;SDS011;775;51.958;7.976;2023-04-25T06:08:57;17.20;;;5.30;;
1563;SDS011;775;51.958;7.976;2023-04-25T06:11:24;17.07;;;3.40;;
1563;SDS011;775;51.958;7.976;2023-04-25T06:13:52;19.23;;;3.57;;
1563;SDS011;775;51.958;7.976;2023-04-25T06:16:20;14.97;;;4.37;;
1563;SDS011;775;51.958;7.976;2023-04-25T06:18:47;23.80;;;4.50;;
1563;SDS011;775;51.958;7.976;2023-04-25T06:21:14;18.50;;;3.27;;
1563;SDS011;775;51.958;7.976;2023-04-25T06:23:41;18.00;;;3.40;;
1563;SDS011;775;51.958;7.976;2023-04-25T06:26:08;15.47;;;3.33;;
1563;SDS011;775;51.958;7.976;2023-04-25T06:28:35;17.37;;;3.80;;
1563;SDS011;775;51.958;7.976;2023-04-25T06:31:03;18.03;;;3.20;;
1563;SDS011;775;51.958;7.976;2023-04-25T06:33:30;17.83;;;4.70;;
1563;SDS011;775;51.958;7.976;2023-04-25T06:35:58;16.87;;;3.03;;
1563;SDS011;775;51.958;7.976;2023-04-25T06:38:25;12.87;;;3.00;;
1563;SDS011;775;51.958;7.976;2023-04-25T06:40:52;16.67;;;3.20;;
1563;SDS011;775;51.958;7.976;2023-04-25T06:43:19;17.37;;;3.77;;
1563;SDS011;775;51.958;7.976;2023-04-25T06:45:46;15.07;;;2.90;;
1563;SDS011;775;51.958;7.976;2023-04-25T06:48:14;17.53;;;3.13;;
1563;SDS011;775;51.958;7.976;2023-04-25T06:50:41;17.70;;;3.10;;
1563;SDS011;775;51.958;7.976;2023-04-25T06:53:08;19.20;;;3.17;;
1563;SDS011;775;51.958;7.976;2023-04-25T06:55:36;16.63;;;2.90;;
1563;SDS011;775;51.958;7.976;2023-04-25T06:58:03;18.03;;;3.37;;
1563;SDS011;775;51.958;7.976;2023-04-25T07:00:30;12.33;;;2.53;;
1563;SDS011;775;51.958;7.976;2023-04-25T07:02:58;14.33;;;3.03;;
1563;SDS011;775;51.958;7.976;2023-04-25T07:05:27;19.97;;;3.67;;
1563;SDS011;775;51.958;7.976;2023-04-25T07:07:54;16.73;;;2.23;;
1563;SDS011;775;51.958;7.976;2023-04-25T07:10:21;14.43;;;2.90;;
1563;SDS011;775;51.958;7.976;2023-04-25T07:12:48;17.13;;;3.03;;
1563;SDS011;775;51.958;7.976;2023-04-25T07:15:15;11.60;;;3.40;;
1563;SDS011;775;51.958;7.976;2023-04-25T07:17:42;15.90;;;2.53;;
1563;SDS011;775;51.958;7.976;2023-04-25T07:20:09;18.53;;;3.60;;
1563;SDS011;775;51.958;7.976;2023-04-25T07:22:38;13.93;;;3.00;;
1563;SDS011;775;51.958;7.976;2023-04-25T07:25:05;17.20;;;3.10;;
1563;SDS011;775;51.958;7.976;2023-04-25T07:27:33;15.67;;;2.87;;
1563;SDS011;775;51.958;7.976;2023-04-25T07:30:01;13.37;;;2.27;;
1563;SDS011;775;51.958;7.976;2023-04-25T07:32:28;16.77;;;2.43;;
1563;SDS011;775;51.958;7.976;2023-04-25T07:34:56;13.40;;;2.37;;
1563;SDS011;775;51.958;7.976;2023-04-25T07:37:23;13.30;;;2.63;;
1563;SDS011;775;51.958;7.976;2023-04-25T07:39:52;18.17;;;4.80;;
1563;SDS011;775;51.958;7.976;2023-04-25T07:42:19;15.80;;;2.63;;
1563;SDS011;775;51.958;7.976;2023-04-25T07:44:47;15.17;;;3.80;;
1563;SDS011;775;51.958;7.976;2023-04-25T07:47:14;17.40;;;2.80;;
1563;SDS011;775;51.958;7.976;2023-04-25T07:49:41;14.13;;;2.40;;
1563;SDS011;775;51.958;7.976;2023-04-25T07:52:08;15.87;;;3.63;;
1563;SDS011;775;51.958;7.976;2023-04-25T07:54:35;17.20;;;2.43;;
1563;SDS011;775;51.958;7.976;2023-04-25T07:57:04;12.93;;;2.30;;
1563;SDS011;775;51.958;7.976;2023-04-25T07:59:32;19.80;;;2.83;;
1563;SDS011;775;51.958;7.976;2023-04-25T08:01:59;16.63;;;2.80;;
1563;SDS011;775;51.958;7.976;2023-04-25T08:04:27;19.37;;;3.20;;
1563;SDS011;775;51.958;7.976;2023-04-25T08:06:54;15.43;;;2.70;;
1563;SDS011;775;51.958;7.976;2023-04-25T08:09:21;16.93;;;2.70;;
1563;SDS011;775;51.958;7.976;2023-04-25T08:11:49;13.67;;;2.50;;
1563;SDS011;775;51.958;7.976;2023-04-25T08:14:17;15.03;;;2.53;;
1563;SDS011;775;51.958;7.976;2023-04-25T08:16:44;15.27;;;2.63;;
1563;SDS011;775;51.958;7.976;2023-04-25T08:19:12;17.40;;;2.70;;
1563;SDS011;775;51.958;7.976;2023-04-25T08:21:39;11.63;;;2.00;;
1563;SDS011;775;51.958;7.976;2023-04-25T08:24:06;14.33;;;2.33;;
1563;SDS011;775;51.958;7.976;2023-04-25T08:26:33;15.20;;;2.43;;
1563;SDS011;775;51.958;7.976;2023-04-25T08:29:02;20.47;;;3.40;;
1563;SDS011;775;51.958;7.976;2023-04-25T08:31:30;15.73;;;2.70;;
1563;SDS011;775;51.958;7.976;2023-04-25T08:33:57;14.73;;;2.37;;
1563;SDS011;775;51.958;7.976;2023-04-25T08:36:25;12.73;;;2.63;;
1563;SDS011;775;51.958;7.976;2023-04-25T08:38:53;13.37;;;2.17;;
1563;SDS011;775;51.958;7.976;2023-04-25T08:41:20;12.00;;;2.10;;
1563;SDS011;775;51.958;7.976;2023-04-25T08:43:48;14.53;;;2.10;;
1563;SDS011;775;51.958;7.976;2023-04-25T08:46:16;17.17;;;2.77;;
1563;SDS011;775;51.958;7.976;2023-04-25T08:48:45;13.00;;;1.90;;
1563;SDS011;775;51.958;7.976;2023-04-25T08:51:14;13.83;;;2.20;;
1563;SDS011;775;51.958;7.976;2023-04-25T08:53:42;13.67;;;2.30;;
1563;SDS011;775;51.958;7.976;2023-04-25T08:56:09;11.77;;;2.00;;
1563;SDS011;775;51.958;7.976;2023-04-25T08:58:38;14.40;;;2.77;;
1563;SDS011;775;51.958;7.976;2023-04-25T09:01:05;14.40;;;3.40;;
1563;SDS011;775;51.958;7.976;2023-04-25T09:03:32;12.30;;;2.13;;
1563;SDS011;775;51.958;7.976;2023-04-25T09:06:01;13.03;;;1.93;;
1563;SDS011;775;51.958;7.976;2023-04-25T09:08:31;19.00;;;2.40;;
1563;SDS011;775;51.958;7.976;2023-04-25T09:10:58;11.87;;;2.03;;
1563;SDS011;775;51.958;7.976;2023-04-25T09:13:26;11.27;;;2.33;;
1563;SDS011;775;51.958;7.976;2023-04-25T09:15:54;11.90;;;2.57;;
1563;SDS011;775;51.958;7.976;2023-04-25T09:18:22;11.13;;;2.30;;
1563;SDS011;775;51.958;7.976;2023-04-25T09:20:51;13.83;;;2.70;;
1563;SDS011;775;51.958;7.976;2023-04-25T09:23:20;11.10;;;1.80;;
1563;SDS011;775;51.958;7.976;2023-04-25T09:25:47;11.23;;;2.20;;
1563;SDS011;775;51.958;7.976;2023-04-25T09:28:14;10.73;;;2.17;;
1563;SDS011;775;51.958;7.976;2023-04-25T09:30:42;12.13;;;2.63;;
1563;SDS011;775;51.958;7.976;2023-04-25T09:33:09;11.00;;;2.70;;
1563;SDS011;775;51.958;7.976;2023-04-25T09:35:37;10.67;;;2.67;;
1563;SDS011;775;51.958;7.976;2023-04-25T09:38:08;11.70;;;2.30;;
1563;SDS011;775;51.958;7.976;2023-04-25T09:40:39;14.90;;;2.30;;
1563;SDS011;775;51.958;7.976;2023-04-25T09:43:10;9.67;;;2.23;;
1563;SDS011;775;51.958;7.976;2023-04-25T09:45:40;11.23;;;2.10;;
1563;SDS011;775;51.958;7.976;2023-04-25T09:48:11;13.37;;;1.73;;
1563;SDS011;775;51.958;7.976;2023-04-25T09:50:38;12.40;;;2.20;;
1563;SDS011;775;51.958;7.976;2023-04-25T09:53:06;15.20;;;1.93;;
1563;SDS011;775;51.958;7.976;2023-04-25T09:55:33;11.17;;;1.90;;
1563;SDS011;775;51.958;7.976;2023-04-25T09:58:03;10.20;;;2.30;;
1563;SDS011;775;51.958;7.976;2023-04-25T10:00:31;14.73;;;2.40;;
1563;SDS011;775;51.958;7.976;2023-04-25T10:02:59;12.10;;;2.40;;
1563;SDS011;775;51.958;7.976;2023-04-25T10:05:28;12.00;;;1.80;;
1563;SDS011;775;51.958;7.976;2023-04-25T10:07:58;14.53;;;3.03;;
1563;SDS011;775;51.958;7.976;2023-04-25T10:10:25;12.47;;;3.00;;
1563;SDS011;775;51.958;7.976;2023-04-25T10:12:53;12.43;;;2.20;;
1563;SDS011;775;51.958;7.976;2023-04-25T10:15:22;13.50;;;2.30;;
1563;SDS011;775;51.958;7.976;2023-04-25T10:17:50;9.93;;;1.97;;
1563;SDS011;775;51.958;7.976;2023-04-25T10:20:17;10.43;;;1.97;;
1563;SDS011;775;51.958;7.976;2023-04-25T10:22:44;10.60;;;1.80;;
1563;SDS011;775;51.958;7.976;2023-04-25T10:25:13;11.30;;;1.80;;
1563;SDS011;775;51.958;7.976;2023-04-25T10:27:41;13.10;;;2.07;;
1563;SDS011;775;51.958;7.976;2023-04-25T10:30:08;9.20;;;1.67;;
1563;SDS011;775;51.958;7.976;2023-04-25T10:32:38;11.33;;;1.60;;
1563;SDS011;775;51.958;7.976;2023-04-25T10:35:13;9.57;;;1.63;;
1563;SDS011;775;51.958;7.976;2023-04-25T10:37:56;10.43;;;1.97;;
1563;SDS011;775;51.958;7.976;2023-04-25T10:40:23;12.40;;;2.00;;
1563;SDS011;775;51.958;7.976;2023-04-25T10:42:51;9.50;;;1.70;;
1563;SDS011;775;51.958;7.976;2023-04-25T10:45:19;10.83;;;2.00;;
1563;SDS011;775;51.958;7.976;2023-04-25T10:47:48;12.80;;;2.17;;
1563;SDS011;775;51.958;7.976;2023-04-25T10:50:15;11.50;;;1.73;;
1563;SDS011;775;51.958;7.976;2023-04-25T10:52:42;13.93;;;1.90;;
1563;SDS011;775;51.958;7.976;2023-04-25T10:55:10;10.23;;;1.90;;
1563;SDS011;775;51.958;7.976;2023-04-25T10:57:37;10.83;;;1.53;;
1563;SDS011;775;51.958;7.976;2023-04-25T11:00:06;11.53;;;2.10;;
1563;SDS011;775;51.958;7.976;2023-04-25T11:02:37;8.50;;;1.40;;
1563;SDS011;775;51.958;7.976;2023-04-25T11:05:06;12.00;;;2.00;;
1563;SDS011;775;51.958;7.976;2023-04-25T11:07:34;12.10;;;1.80;;
1563;SDS011;775;51.958;7.976;2023-04-25T11:10:04;9.37;;;1.50;;
1563;SDS011;775;51.958;7.976;2023-04-25T11:12:32;13.20;;;2.20;;
1563;SDS011;775;51.958;7.976;2023-04-25T11:15:00;11.80;;;1.80;;
1563;SDS011;775;51.958;7.976;2023-04-25T11:17:27;10.20;;;1.80;;
1563;SDS011;775;51.958;7.976;2023-04-25T11:19:55;14.20;;;1.80;;
1563;SDS011;775;51.958;7.976;2023-04-25T11:22:23;11.80;;;2.90;;
1563;SDS011;775;51.958;7.976;2023-04-25T11:24:51;9.37;;;1.60;;
1563;SDS011;775;51.958;7.976;2023-04-25T11:27:18;10.53;;;2.37;;
1563;SDS011;775;51.958;7.976;2023-04-25T11:29:45;8.70;;;1.60;;
1563;SDS011;775;51.958;7.976;2023-04-25T11:32:14;10.17;;;2.23;;
1563;SDS011;775;51.958;7.976;2023-04-25T11:34:44;11.27;;;1.70;;
1563;SDS011;775;51.958;7.976;2023-04-25T11:37:11;12.70;;;3.00;;
1563;SDS011;775;51.958;7.976;2023-04-25T11:39:39;10.60;;;1.47;;
1563;SDS011;775;51.958;7.976;2023-04-25T11:42:09;12.57;;;1.90;;
1563;SDS011;775;51.958;7.976;2023-04-25T11:44:37;11.17;;;2.13;;
1563;SDS011;775;51.958;7.976;2023-04-25T11:47:04;12.27;;;2.40;;
1563;SDS011;775;51.958;7.976;2023-04-25T11:49:31;12.23;;;1.97;;
1563;SDS011;775;51.958;7.976;2023-04-25T11:52:00;10.27;;;1.80;;
1563;SDS011;775;51.958;7.976;2023-04-25T11:54:27;10.17;;;1.70;;
1563;SDS011;775;51.958;7.976;2023-04-25T11:56:55;9.20;;;2.27;;
1563;SDS011;775;51.958;7.976;2023-04-25T11:59:23;10.47;;;1.70;;
1563;SDS011;775;51.958;7.976;2023-04-25T12:01:51;12.00;;;1.50;;
1563;SDS011;775;51.958;7.976;2023-04-25T12:04:19;9.43;;;1.53;;
1563;SDS011;775;51.958;7.976;2023-04-25T12:06:47;11.87;;;1.80;;
1563;SDS011;775;51.958;7.976;2023-04-25T12:09:15;10.50;;;1.70;;
1563;SDS011;775;51.958;7.976;2023-04-25T12:11:43;9.40;;;1.67;;
1563;SDS011;775;51.958;7.976;2023-04-25T12:14:12;10.67;;;1.50;;
1563;SDS011;775;51.958;7.976;2023-04-25T12:16:40;13.73;;;2.07;;
1563;SDS011;775;51.958;7.976;2023-04-25T12:19:07;10.77;;;2.13;;
1563;SDS011;775;51.958;7.976;2023-04-25T12:21:34;10.67;;;1.77;;
1563;SDS011;775;51.958;7.976;2023-04-25T12:24:09;11.30;;;1.80;;
1563;SDS011;775;51.958;7.976;2023-04-25T12:26:46;9.50;;;1.57;;
1563;SDS011;775;51.958;7.976;2023-04-25T12:29:16;9.70;;;1.40;;
1563;SDS011;775;51.958;7.976;2023-04-25T12:31:43;9.40;;;1.77;;
1563;SDS011;775;51.958;7.976;2023-04-25T12:34:11;9.40;;;1.30;;
1563;SDS011;775;51.958;7.976;2023-04-25T12:36:38;10.00;;;1.63;;
1563;SDS011;775;51.958;7.976;2023-04-25T12:39:05;9.50;;;1.40;;
1563;SDS011;775;51.958;7.976;2023-04-25T12:41:32;8.70;;;1.53;;
1563;SDS011;775;51.958;7.976;2023-04-25T12:44:00;8.97;;;1.50;;
1563;SDS011;775;51.958;7.976;2023-04-25T12:46:28;8.50;;;1.43;;
1563;SDS011;775;51.958;7.976;2023-04-25T12:48:55;13.17;;;1.73;;
1563;SDS011;775;51.958;7.976;2023-04-25T12:51:22;11.00;;;2.07;;
1563;SDS011;775;51.958;7.976;2023-04-25T12:53:50;8.70;;;1.57;;
1563;SDS011;775;51.958;7.976;2023-04-25T12:56:18;10.73;;;1.90;;
1563;SDS011;775;51.958;7.976;2023-04-25T12:58:45;13.33;;;1.70;;
1563;SDS011;775;51.958;7.976;2023-04-25T13:01:13;9.37;;;1.47;;
1563;SDS011;775;51.958;7.976;2023-04-25T13:03:41;9.73;;;1.60;;
1563;SDS011;775;51.958;7.976;2023-04-25T13:06:09;8.90;;;1.50;;
1563;SDS011;775;51.958;7.976;2023-04-25T13:08:36;9.57;;;1.53;;
1563;SDS011;775;51.958;7.976;2023-04-25T13:11:03;10.70;;;1.40;;
1563;SDS011;775;51.958;7.976;2023-04-25T13:13:30;8.47;;;1.50;;
1563;SDS011;775;51.958;7.976;2023-04-25T13:15:59;10.00;;;1.83;;
1563;SDS011;775;51.958;7.976;2023-04-25T13:18:26;11.80;;;2.03;;
1563;SDS011;775;51.958;7.976;2023-04-25T13:20:55;8.90;;;2.10;;
1563;SDS011;775;51.958;7.976;2023-04-25T13:23:22;10.27;;;2.10;;
1563;SDS011;775;51.958;7.976;2023-04-25T13:25:50;8.60;;;1.83;;
1563;SDS011;775;51.958;7.976;2023-04-25T13:28:17;10.37;;;1.70;;
1563;SDS011;775;51.958;7.976;2023-04-25T13:30:44;8.90;;;1.73;;
1563;SDS011;775;51.958;7.976;2023-04-25T13:33:12;10.43;;;1.60;;
1563;SDS011;775;51.958;7.976;2023-04-25T13:35:40;9.90;;;1.50;;
1563;SDS011;775;51.958;7.976;2023-04-25T13:38:08;10.57;;;1.80;;
1563;SDS011;775;51.958;7.976;2023-04-25T13:40:36;11.37;;;1.80;;
1563;SDS011;775;51.958;7.976;2023-04-25T13:43:03;10.70;;;1.83;;
1563;SDS011;775;51.958;7.976;2023-04-25T13:45:31;12.40;;;2.00;;
1563;SDS011;775;51.958;7.976;2023-04-25T13:47:58;9.03;;;1.50;;
1563;SDS011;775;51.958;7.976;2023-04-25T13:50:25;8.80;;;1.47;;
1563;SDS011;775;51.958;7.976;2023-04-25T13:52:52;10.93;;;1.40;;
1563;SDS011;775;51.958;7.976;2023-04-25T13:55:21;9.27;;;1.70;;
1563;SDS011;775;51.958;7.976;2023-04-25T13:57:48;9.60;;;1.83;;
1563;SDS011;775;51.958;7.976;2023-04-25T14:00:15;9.80;;;1.43;;
1563;SDS011;775;51.958;7.976;2023-04-25T14:02:43;9.63;;;1.70;;
1563;SDS011;775;51.958;7.976;2023-04-25T14:05:10;11.20;;;1.70;;
1563;SDS011;775;51.958;7.976;2023-04-25T14:07:38;11.53;;;1.83;;
1563;SDS011;775;51.958;7.976;2023-04-25T14:10:05;9.00;;;1.60;;
1563;SDS011;775;51.958;7.976;2023-04-25T14:12:34;11.27;;;1.73;;
1563;SDS011;775;51.958;7.976;2023-04-25T14:15:01;9.50;;;1.60;;
1563;SDS011;775;51.958;7.976;2023-04-25T14:17:28;10.50;;;1.87;;
1563;SDS011;775;51.958;7.976;2023-04-25T14:19:55;9.00;;;1.70;;
1563;SDS011;775;51.958;7.976;2023-04-25T14:22:22;10.30;;;1.50;;
1563;SDS011;775;51.958;7.976;2023-04-25T14:24:49;11.00;;;1.70;;
1563;SDS011;775;51.958;7.976;2023-04-25T14:27:17;8.80;;;1.40;;
1563;SDS011;775;51.958;7.976;2023-04-25T14:29:45;9.43;;;1.63;;
1563;SDS011;775;51.958;7.976;2023-04-25T14:32:13;10.40;;;1.77;;
1563;SDS011;775;51.958;7.976;2023-04-25T14:34:40;8.50;;;1.17;;
1563;SDS011;775;51.958;7.976;2023-04-25T14:37:07;9.20;;;1.57;;
1563;SDS011;775;51.958;7.976;2023-04-25T14:39:35;8.90;;;1.63;;
1563;SDS011;775;51.958;7.976;2023-04-25T14:42:02;11.57;;;1.50;;
1563;SDS011;775;51.958;7.976;2023-04-25T14:44:30;8.23;;;1.30;;
1563;SDS011;775;51.958;7.976;2023-04-25T14:46:58;9.67;;;1.57;;
1563;SDS011;775;51.958;7.976;2023-04-25T14:49:26;8.77;;;1.43;;
1563;SDS011;775;51.958;7.976;2023-04-25T14:51:53;9.87;;;1.80;;
1563;SDS011;775;51.958;7.976;2023-04-25T14:54:20;11.10;;;1.70;;
1563;SDS011;775;51.958;7.976;2023-04-25T14:56:47;9.40;;;1.47;;
1563;SDS011;775;51.958;7.976;2023-04-25T14:59:14;9.20;;;1.70;;
1563;SDS011;775;51.958;7.976;2023-04-25T15:01:42;13.83;;;2.23;;
1563;SDS011;775;51.958;7.976;2023-04-25T15:04:10;9.60;;;1.80;;
1563;SDS011;775;51.958;7.976;2023-04-25T15:06:37;9.63;;;1.90;;
1563;SDS011;775;51.958;7.976;2023-04-25T15:09:05;10.53;;;1.90;;
1563;SDS011;775;51.958;7.976;2023-04-25T15:11:33;11.00;;;1.70;;
1563;SDS011;775;51.958;7.976;2023-04-25T15:14:00;12.10;;;1.70;;
1563;SDS011;775;51.958;7.976;2023-04-25T15:16:27;10.57;;;1.83;;
1563;SDS011;775;51.958;7.976;2023-04-25T15:18:55;11.23;;;1.90;;
1563;SDS011;775;51.958;7.976;2023-04-25T15:21:24;10.20;;;1.60;;